Terminal Aerodrome Forecast
Issued by NWS

Home | Current Version | Previous Version | Text Only | Print | Product List | Glossary On
Versions: 1 2 3 4 5 6 7 8 9 10 11 12 13 14 15 16 17 18
000
FTUS46 KEKA 250538
TAFUKI
TAF
KUKI 250538Z 2506/2606 32010G15KT P6SM SCT050
     FM250800 36003KT P6SM SKC
     FM251900 33007KT P6SM SKC=

USA.gov is the U.S. government's official web portal to all federal, state and local government web resources and services.